Main page
METAR-TAF:

METAR-TAF

Airports :

Albert – Picardie Airport

Albert, France

latitude: 49-58-21N, longitude: 002-41-29E, elevation: 111 m

Current weather observation

The report was made 38 minutes ago, at 18:30 UTC
Wind 7 kt from the South
Temperature 2°C
Humidity 93%
Pressure 1026 hPa
Visibility: 7000 m
Broken clouds at a height of 1900 ft
Overcast at a height of 4000 ft

METAR: LFAQ 291830Z AUTO 19007KT 7000 BKN019 OVC040 02/01 Q1026

Time: 20:08 (19:08 UTC)

Forecast

The report was made 5 hours and 8 minutes ago, at 14:00 UTC
Forecast valid from 29 at 15 UTC to 29 at 24 UTC
Wind 7 kt from the South/Southwest
Visibility 10 km or more
Overcast at a height of 1700 ft
Becoming
from 29 at 20 UTC to 29 at 22 UTC
Overcast at a height of 700 ft
Temporary
from 29 at 22 UTC to 29 at 24 UTC
Visibility: 2000 m
Overcast at a height of 200 ft
drizzle, rain, mist

TAF: LFAQ 291400Z 2915/2924 21007KT 9999 OVC017 BECMG 2920/2922 OVC007 TEMPO 2922/2924 2000 DZRA BR OVC002

Weather observations and forecasts of more than 4000 airports (METAR and TAF reports).

The available stations are represented by yellow and red dots on the map.

Hover mouse over dot to see the name of the station.

Then click to see weather observations and forecasts.

To change the map : click on the green buttons with a black cross to zoom in, on the green button with a dash to zoom out, or on the green arrows for adjacent maps.


METAR-TAF: